sensor_id;sensor_type;location;lat;lon;timestamp;P1;durP1;ratioP1;P2;durP2;ratioP2
11398;SDS011;5755;48.116;11.608;2022-09-21T00:00:40;6.30;;;3.38;;
11398;SDS011;5755;48.116;11.608;2022-09-21T00:03:07;7.03;;;3.55;;
11398;SDS011;5755;48.116;11.608;2022-09-21T00:05:34;6.60;;;3.47;;
11398;SDS011;5755;48.116;11.608;2022-09-21T00:08:07;8.05;;;3.47;;
11398;SDS011;5755;48.116;11.608;2022-09-21T00:10:35;5.15;;;3.25;;
11398;SDS011;5755;48.116;11.608;2022-09-21T00:13:04;5.70;;;3.20;;
11398;SDS011;5755;48.116;11.608;2022-09-21T00:15:33;8.25;;;3.95;;
11398;SDS011;5755;48.116;11.608;2022-09-21T00:17:59;5.63;;;3.20;;
11398;SDS011;5755;48.116;11.608;2022-09-21T00:20:27;5.05;;;3.20;;
11398;SDS011;5755;48.116;11.608;2022-09-21T00:22:54;5.90;;;3.33;;
11398;SDS011;5755;48.116;11.608;2022-09-21T00:25:25;4.80;;;3.30;;
11398;SDS011;5755;48.116;11.608;2022-09-21T00:27:52;8.07;;;3.80;;
11398;SDS011;5755;48.116;11.608;2022-09-21T00:30:21;6.72;;;3.35;;
11398;SDS011;5755;48.116;11.608;2022-09-21T00:32:48;6.55;;;3.28;;
11398;SDS011;5755;48.116;11.608;2022-09-21T00:35:15;4.57;;;3.05;;
11398;SDS011;5755;48.116;11.608;2022-09-21T00:37:41;5.40;;;3.30;;
11398;SDS011;5755;48.116;11.608;2022-09-21T00:40:08;6.65;;;3.22;;
11398;SDS011;5755;48.116;11.608;2022-09-21T00:42:35;5.68;;;3.33;;
11398;SDS011;5755;48.116;11.608;2022-09-21T00:45:03;3.80;;;3.42;;
11398;SDS011;5755;48.116;11.608;2022-09-21T00:47:33;5.85;;;3.58;;
11398;SDS011;5755;48.116;11.608;2022-09-21T00:50:05;5.83;;;3.03;;
11398;SDS011;5755;48.116;11.608;2022-09-21T00:52:36;5.60;;;3.70;;
11398;SDS011;5755;48.116;11.608;2022-09-21T00:55:07;5.32;;;4.05;;
11398;SDS011;5755;48.116;11.608;2022-09-21T00:57:41;5.63;;;4.07;;
11398;SDS011;5755;48.116;11.608;2022-09-21T01:00:09;8.55;;;4.00;;
11398;SDS011;5755;48.116;11.608;2022-09-21T01:02:37;6.30;;;4.28;;
11398;SDS011;5755;48.116;11.608;2022-09-21T01:05:06;6.85;;;3.95;;
11398;SDS011;5755;48.116;11.608;2022-09-21T01:07:37;6.37;;;3.80;;
11398;SDS011;5755;48.116;11.608;2022-09-21T01:10:07;6.47;;;3.65;;
11398;SDS011;5755;48.116;11.608;2022-09-21T01:12:40;7.93;;;3.83;;
11398;SDS011;5755;48.116;11.608;2022-09-21T01:15:22;4.90;;;3.53;;
11398;SDS011;5755;48.116;11.608;2022-09-21T01:18:00;7.23;;;3.73;;
11398;SDS011;5755;48.116;11.608;2022-09-21T01:20:44;5.22;;;3.53;;
11398;SDS011;5755;48.116;11.608;2022-09-21T01:23:30;5.00;;;3.17;;
11398;SDS011;5755;48.116;11.608;2022-09-21T01:26:09;4.47;;;2.93;;
11398;SDS011;5755;48.116;11.608;2022-09-21T01:28:56;5.43;;;3.50;;
11398;SDS011;5755;48.116;11.608;2022-09-21T01:31:44;7.63;;;3.23;;
11398;SDS011;5755;48.116;11.608;2022-09-21T01:34:23;5.00;;;3.30;;
11398;SDS011;5755;48.116;11.608;2022-09-21T01:36:56;5.00;;;3.17;;
11398;SDS011;5755;48.116;11.608;2022-09-21T01:39:26;7.50;;;3.10;;
11398;SDS011;5755;48.116;11.608;2022-09-21T01:41:55;4.47;;;3.33;;
11398;SDS011;5755;48.116;11.608;2022-09-21T01:44:26;4.30;;;2.77;;
11398;SDS011;5755;48.116;11.608;2022-09-21T01:46:57;8.50;;;3.53;;
11398;SDS011;5755;48.116;11.608;2022-09-21T01:49:26;7.20;;;2.90;;
11398;SDS011;5755;48.116;11.608;2022-09-21T01:51:59;4.63;;;3.17;;
11398;SDS011;5755;48.116;11.608;2022-09-21T01:54:32;4.00;;;2.90;;
11398;SDS011;5755;48.116;11.608;2022-09-21T01:57:05;3.77;;;2.80;;
11398;SDS011;5755;48.116;11.608;2022-09-21T01:59:39;3.40;;;2.50;;
11398;SDS011;5755;48.116;11.608;2022-09-21T02:02:12;4.50;;;2.70;;
11398;SDS011;5755;48.116;11.608;2022-09-21T02:04:43;3.97;;;2.50;;
11398;SDS011;5755;48.116;11.608;2022-09-21T02:07:10;3.07;;;2.60;;
11398;SDS011;5755;48.116;11.608;2022-09-21T02:09:37;6.73;;;2.73;;
11398;SDS011;5755;48.116;11.608;2022-09-21T02:12:04;3.87;;;2.53;;
11398;SDS011;5755;48.116;11.608;2022-09-21T02:14:31;4.10;;;2.80;;
11398;SDS011;5755;48.116;11.608;2022-09-21T02:17:04;3.33;;;2.60;;
11398;SDS011;5755;48.116;11.608;2022-09-21T02:19:44;5.87;;;2.60;;
11398;SDS011;5755;48.116;11.608;2022-09-21T02:22:16;4.07;;;2.70;;
11398;SDS011;5755;48.116;11.608;2022-09-21T02:24:54;5.47;;;2.97;;
11398;SDS011;5755;48.116;11.608;2022-09-21T02:27:31;5.67;;;3.37;;
11398;SDS011;5755;48.116;11.608;2022-09-21T02:30:04;4.50;;;3.90;;
11398;SDS011;5755;48.116;11.608;2022-09-21T02:32:37;7.17;;;4.27;;
11398;SDS011;5755;48.116;11.608;2022-09-21T02:35:14;6.47;;;4.23;;
11398;SDS011;5755;48.116;11.608;2022-09-21T02:37:52;6.87;;;4.90;;
11398;SDS011;5755;48.116;11.608;2022-09-21T02:40:27;6.73;;;4.53;;
11398;SDS011;5755;48.116;11.608;2022-09-21T02:42:59;7.17;;;4.50;;
11398;SDS011;5755;48.116;11.608;2022-09-21T02:45:31;7.93;;;4.90;;
11398;SDS011;5755;48.116;11.608;2022-09-21T02:48:04;8.20;;;4.70;;
11398;SDS011;5755;48.116;11.608;2022-09-21T02:50:38;7.60;;;4.27;;
11398;SDS011;5755;48.116;11.608;2022-09-21T02:53:08;6.57;;;4.80;;
11398;SDS011;5755;48.116;11.608;2022-09-21T02:55:37;6.77;;;4.77;;
11398;SDS011;5755;48.116;11.608;2022-09-21T02:58:05;5.83;;;4.00;;
11398;SDS011;5755;48.116;11.608;2022-09-21T03:00:35;7.57;;;5.00;;
11398;SDS011;5755;48.116;11.608;2022-09-21T03:03:14;10.53;;;5.10;;
11398;SDS011;5755;48.116;11.608;2022-09-21T03:05:42;7.97;;;4.80;;
11398;SDS011;5755;48.116;11.608;2022-09-21T03:08:10;8.27;;;4.50;;
11398;SDS011;5755;48.116;11.608;2022-09-21T03:10:37;6.50;;;3.90;;
11398;SDS011;5755;48.116;11.608;2022-09-21T03:13:04;4.90;;;3.37;;
11398;SDS011;5755;48.116;11.608;2022-09-21T03:15:33;3.97;;;3.20;;
11398;SDS011;5755;48.116;11.608;2022-09-21T03:18:00;6.17;;;3.20;;
11398;SDS011;5755;48.116;11.608;2022-09-21T03:20:30;5.73;;;3.17;;
11398;SDS011;5755;48.116;11.608;2022-09-21T03:22:58;3.63;;;3.03;;
11398;SDS011;5755;48.116;11.608;2022-09-21T03:25:26;4.47;;;2.90;;
11398;SDS011;5755;48.116;11.608;2022-09-21T03:28:01;4.03;;;2.87;;
11398;SDS011;5755;48.116;11.608;2022-09-21T03:30:28;4.63;;;3.43;;
11398;SDS011;5755;48.116;11.608;2022-09-21T03:32:55;9.77;;;3.33;;
11398;SDS011;5755;48.116;11.608;2022-09-21T03:35:23;3.57;;;2.60;;
11398;SDS011;5755;48.116;11.608;2022-09-21T03:37:52;5.00;;;2.53;;
11398;SDS011;5755;48.116;11.608;2022-09-21T03:40:19;5.40;;;2.80;;
11398;SDS011;5755;48.116;11.608;2022-09-21T03:42:46;5.87;;;2.53;;
11398;SDS011;5755;48.116;11.608;2022-09-21T03:45:12;3.97;;;2.80;;
11398;SDS011;5755;48.116;11.608;2022-09-21T03:47:39;3.70;;;2.53;;
11398;SDS011;5755;48.116;11.608;2022-09-21T03:50:07;3.97;;;2.57;;
11398;SDS011;5755;48.116;11.608;2022-09-21T03:52:34;3.93;;;2.67;;
11398;SDS011;5755;48.116;11.608;2022-09-21T03:55:04;3.00;;;2.40;;
11398;SDS011;5755;48.116;11.608;2022-09-21T03:57:32;4.97;;;2.80;;
11398;SDS011;5755;48.116;11.608;2022-09-21T03:59:59;4.50;;;2.60;;
11398;SDS011;5755;48.116;11.608;2022-09-21T04:02:27;4.77;;;2.47;;
11398;SDS011;5755;48.116;11.608;2022-09-21T04:04:54;3.13;;;2.30;;
11398;SDS011;5755;48.116;11.608;2022-09-21T04:07:20;2.67;;;2.23;;
11398;SDS011;5755;48.116;11.608;2022-09-21T04:09:47;3.37;;;2.60;;
11398;SDS011;5755;48.116;11.608;2022-09-21T04:12:15;3.83;;;2.37;;
11398;SDS011;5755;48.116;11.608;2022-09-21T04:14:46;2.90;;;2.17;;
11398;SDS011;5755;48.116;11.608;2022-09-21T04:17:13;6.90;;;2.80;;
11398;SDS011;5755;48.116;11.608;2022-09-21T04:19:40;4.40;;;2.60;;
11398;SDS011;5755;48.116;11.608;2022-09-21T04:22:09;5.73;;;2.67;;
11398;SDS011;5755;48.116;11.608;2022-09-21T04:24:36;4.43;;;2.70;;
11398;SDS011;5755;48.116;11.608;2022-09-21T04:27:05;6.13;;;2.97;;
11398;SDS011;5755;48.116;11.608;2022-09-21T04:29:33;5.97;;;3.10;;
11398;SDS011;5755;48.116;11.608;2022-09-21T04:32:00;6.10;;;3.00;;
11398;SDS011;5755;48.116;11.608;2022-09-21T04:34:27;4.30;;;2.97;;
11398;SDS011;5755;48.116;11.608;2022-09-21T04:36:55;4.10;;;3.13;;
11398;SDS011;5755;48.116;11.608;2022-09-21T04:39:22;7.27;;;3.10;;
11398;SDS011;5755;48.116;11.608;2022-09-21T04:41:49;3.70;;;3.27;;
11398;SDS011;5755;48.116;11.608;2022-09-21T04:44:16;5.77;;;3.20;;
11398;SDS011;5755;48.116;11.608;2022-09-21T04:46:44;4.93;;;3.33;;
11398;SDS011;5755;48.116;11.608;2022-09-21T04:49:11;4.73;;;3.50;;
11398;SDS011;5755;48.116;11.608;2022-09-21T04:51:38;8.33;;;3.20;;
11398;SDS011;5755;48.116;11.608;2022-09-21T04:54:05;4.10;;;2.97;;
11398;SDS011;5755;48.116;11.608;2022-09-21T04:56:32;4.73;;;3.03;;
11398;SDS011;5755;48.116;11.608;2022-09-21T04:58:59;4.23;;;3.20;;
11398;SDS011;5755;48.116;11.608;2022-09-21T05:01:26;5.50;;;3.50;;
11398;SDS011;5755;48.116;11.608;2022-09-21T05:03:54;6.13;;;3.03;;
11398;SDS011;5755;48.116;11.608;2022-09-21T05:06:25;5.03;;;2.80;;
11398;SDS011;5755;48.116;11.608;2022-09-21T05:08:52;3.70;;;2.93;;
11398;SDS011;5755;48.116;11.608;2022-09-21T05:11:36;5.40;;;3.00;;
11398;SDS011;5755;48.116;11.608;2022-09-21T05:14:04;4.10;;;2.73;;
11398;SDS011;5755;48.116;11.608;2022-09-21T05:16:30;4.50;;;3.00;;
11398;SDS011;5755;48.116;11.608;2022-09-21T05:18:59;4.30;;;2.87;;
11398;SDS011;5755;48.116;11.608;2022-09-21T05:21:26;5.67;;;3.77;;
11398;SDS011;5755;48.116;11.608;2022-09-21T05:23:54;3.67;;;2.80;;
11398;SDS011;5755;48.116;11.608;2022-09-21T05:26:21;7.43;;;3.40;;
11398;SDS011;5755;48.116;11.608;2022-09-21T05:28:48;5.20;;;2.93;;
11398;SDS011;5755;48.116;11.608;2022-09-21T05:31:21;3.57;;;2.80;;
11398;SDS011;5755;48.116;11.608;2022-09-21T05:33:55;6.93;;;3.17;;
11398;SDS011;5755;48.116;11.608;2022-09-21T05:36:31;6.87;;;3.23;;
11398;SDS011;5755;48.116;11.608;2022-09-21T05:39:07;10.23;;;3.47;;
11398;SDS011;5755;48.116;11.608;2022-09-21T05:41:34;5.70;;;3.40;;
11398;SDS011;5755;48.116;11.608;2022-09-21T05:44:01;6.40;;;3.17;;
11398;SDS011;5755;48.116;11.608;2022-09-21T05:46:32;4.53;;;2.97;;
11398;SDS011;5755;48.116;11.608;2022-09-21T05:49:07;4.33;;;3.43;;
11398;SDS011;5755;48.116;11.608;2022-09-21T05:51:43;6.20;;;3.50;;
11398;SDS011;5755;48.116;11.608;2022-09-21T05:54:23;5.83;;;3.33;;
11398;SDS011;5755;48.116;11.608;2022-09-21T05:56:59;4.13;;;3.33;;
11398;SDS011;5755;48.116;11.608;2022-09-21T05:59:47;8.00;;;3.50;;
11398;SDS011;5755;48.116;11.608;2022-09-21T06:02:26;5.87;;;3.70;;
11398;SDS011;5755;48.116;11.608;2022-09-21T06:05:10;4.07;;;3.37;;
11398;SDS011;5755;48.116;11.608;2022-09-21T06:07:38;7.47;;;3.43;;
11398;SDS011;5755;48.116;11.608;2022-09-21T06:10:06;8.27;;;3.40;;
11398;SDS011;5755;48.116;11.608;2022-09-21T06:12:33;5.50;;;3.33;;
11398;SDS011;5755;48.116;11.608;2022-09-21T06:15:00;5.03;;;3.50;;
11398;SDS011;5755;48.116;11.608;2022-09-21T06:17:27;6.67;;;3.63;;
11398;SDS011;5755;48.116;11.608;2022-09-21T06:19:54;4.83;;;3.83;;
11398;SDS011;5755;48.116;11.608;2022-09-21T06:22:22;4.47;;;3.67;;
11398;SDS011;5755;48.116;11.608;2022-09-21T06:24:49;6.77;;;4.03;;
11398;SDS011;5755;48.116;11.608;2022-09-21T06:27:16;6.47;;;4.10;;
11398;SDS011;5755;48.116;11.608;2022-09-21T06:29:42;7.43;;;4.20;;
11398;SDS011;5755;48.116;11.608;2022-09-21T06:32:13;9.50;;;4.10;;
11398;SDS011;5755;48.116;11.608;2022-09-21T06:34:43;6.00;;;4.05;;
11398;SDS011;5755;48.116;11.608;2022-09-21T06:37:10;6.93;;;4.13;;
11398;SDS011;5755;48.116;11.608;2022-09-21T06:39:38;9.32;;;4.38;;
11398;SDS011;5755;48.116;11.608;2022-09-21T06:45:27;9.23;;;4.32;;
11398;SDS011;5755;48.116;11.608;2022-09-21T06:47:55;7.73;;;4.17;;
11398;SDS011;5755;48.116;11.608;2022-09-21T06:50:22;7.47;;;4.00;;
11398;SDS011;5755;48.116;11.608;2022-09-21T06:52:49;9.38;;;4.50;;
11398;SDS011;5755;48.116;11.608;2022-09-21T06:55:18;6.18;;;4.50;;
11398;SDS011;5755;48.116;11.608;2022-09-21T06:57:45;8.50;;;4.22;;
11398;SDS011;5755;48.116;11.608;2022-09-21T07:00:12;7.18;;;4.00;;
11398;SDS011;5755;48.116;11.608;2022-09-21T07:02:41;8.00;;;3.80;;
11398;SDS011;5755;48.116;11.608;2022-09-21T07:05:09;7.70;;;3.88;;
11398;SDS011;5755;48.116;11.608;2022-09-21T07:07:36;6.65;;;4.10;;
11398;SDS011;5755;48.116;11.608;2022-09-21T07:10:04;5.05;;;3.85;;
11398;SDS011;5755;48.116;11.608;2022-09-21T07:12:39;5.05;;;3.70;;
11398;SDS011;5755;48.116;11.608;2022-09-21T07:15:06;6.40;;;3.47;;
11398;SDS011;5755;48.116;11.608;2022-09-21T07:17:38;6.85;;;3.30;;
11398;SDS011;5755;48.116;11.608;2022-09-21T07:20:05;5.95;;;3.20;;
11398;SDS011;5755;48.116;11.608;2022-09-21T07:22:33;4.38;;;3.13;;
11398;SDS011;5755;48.116;11.608;2022-09-21T07:25:01;4.55;;;2.88;;
11398;SDS011;5755;48.116;11.608;2022-09-21T07:27:31;6.55;;;3.47;;
11398;SDS011;5755;48.116;11.608;2022-09-21T07:30:00;4.72;;;3.17;;
11398;SDS011;5755;48.116;11.608;2022-09-21T07:32:27;7.35;;;3.17;;
11398;SDS011;5755;48.116;11.608;2022-09-21T07:34:55;3.67;;;2.95;;
11398;SDS011;5755;48.116;11.608;2022-09-21T07:37:22;3.70;;;2.70;;
11398;SDS011;5755;48.116;11.608;2022-09-21T07:39:50;4.75;;;2.65;;
11398;SDS011;5755;48.116;11.608;2022-09-21T07:42:17;4.03;;;2.25;;
11398;SDS011;5755;48.116;11.608;2022-09-21T07:44:45;4.13;;;1.83;;
11398;SDS011;5755;48.116;11.608;2022-09-21T07:47:14;3.85;;;1.70;;
11398;SDS011;5755;48.116;11.608;2022-09-21T07:49:42;3.55;;;2.03;;
11398;SDS011;5755;48.116;11.608;2022-09-21T07:52:11;3.22;;;1.73;;
11398;SDS011;5755;48.116;11.608;2022-09-21T07:54:39;5.07;;;2.45;;
11398;SDS011;5755;48.116;11.608;2022-09-21T07:57:06;2.97;;;1.30;;
11398;SDS011;5755;48.116;11.608;2022-09-21T08:00:01;4.68;;;2.15;;
11398;SDS011;5755;48.116;11.608;2022-09-21T08:02:44;4.90;;;1.70;;
11398;SDS011;5755;48.116;11.608;2022-09-21T08:05:11;7.32;;;1.70;;
11398;SDS011;5755;48.116;11.608;2022-09-21T08:07:38;2.63;;;1.58;;
11398;SDS011;5755;48.116;11.608;2022-09-21T08:10:07;2.47;;;1.63;;
11398;SDS011;5755;48.116;11.608;2022-09-21T08:12:35;2.92;;;1.48;;
11398;SDS011;5755;48.116;11.608;2022-09-21T08:15:02;2.95;;;1.75;;
11398;SDS011;5755;48.116;11.608;2022-09-21T08:17:44;2.70;;;1.40;;
11398;SDS011;5755;48.116;11.608;2022-09-21T08:23:07;2.78;;;1.58;;
11398;SDS011;5755;48.116;11.608;2022-09-21T08:25:34;4.88;;;1.92;;
11398;SDS011;5755;48.116;11.608;2022-09-21T08:28:01;2.20;;;1.60;;
11398;SDS011;5755;48.116;11.608;2022-09-21T08:30:27;3.58;;;1.70;;
11398;SDS011;5755;48.116;11.608;2022-09-21T08:32:57;3.78;;;1.90;;
11398;SDS011;5755;48.116;11.608;2022-09-21T08:35:24;2.15;;;1.52;;
11398;SDS011;5755;48.116;11.608;2022-09-21T08:37:52;3.10;;;1.58;;
11398;SDS011;5755;48.116;11.608;2022-09-21T08:40:19;1.40;;;1.30;;
11398;SDS011;5755;48.116;11.608;2022-09-21T08:42:51;1.90;;;1.40;;
11398;SDS011;5755;48.116;11.608;2022-09-21T08:45:24;2.38;;;1.40;;
11398;SDS011;5755;48.116;11.608;2022-09-21T08:48:03;2.00;;;1.40;;
11398;SDS011;5755;48.116;11.608;2022-09-21T08:50:44;2.38;;;1.60;;
11398;SDS011;5755;48.116;11.608;2022-09-21T08:53:14;2.20;;;1.35;;
11398;SDS011;5755;48.116;11.608;2022-09-21T08:55:44;1.90;;;1.33;;
11398;SDS011;5755;48.116;11.608;2022-09-21T09:04:23;3.88;;;1.48;;
11398;SDS011;5755;48.116;11.608;2022-09-21T09:07:03;2.90;;;1.55;;
11398;SDS011;5755;48.116;11.608;2022-09-21T09:10:05;1.92;;;1.42;;
11398;SDS011;5755;48.116;11.608;2022-09-21T09:12:44;2.33;;;1.27;;
11398;SDS011;5755;48.116;11.608;2022-09-21T09:15:25;2.03;;;1.17;;
11398;SDS011;5755;48.116;11.608;2022-09-21T09:18:13;1.98;;;1.17;;
11398;SDS011;5755;48.116;11.608;2022-09-21T09:20:52;3.13;;;1.50;;
11398;SDS011;5755;48.116;11.608;2022-09-21T09:23:23;2.00;;;1.08;;
11398;SDS011;5755;48.116;11.608;2022-09-21T09:25:53;2.50;;;1.10;;
11398;SDS011;5755;48.116;11.608;2022-09-21T09:28:26;2.53;;;1.20;;
11398;SDS011;5755;48.116;11.608;2022-09-21T09:30:57;3.20;;;1.40;;
11398;SDS011;5755;48.116;11.608;2022-09-21T09:33:27;3.22;;;1.30;;
11398;SDS011;5755;48.116;11.608;2022-09-21T09:36:02;1.77;;;1.38;;
11398;SDS011;5755;48.116;11.608;2022-09-21T09:38:31;2.92;;;1.25;;
11398;SDS011;5755;48.116;11.608;2022-09-21T09:41:16;3.92;;;1.40;;
11398;SDS011;5755;48.116;11.608;2022-09-21T09:44:06;3.05;;;1.40;;
11398;SDS011;5755;48.116;11.608;2022-09-21T09:46:43;1.85;;;1.25;;
11398;SDS011;5755;48.116;11.608;2022-09-21T09:49:22;2.15;;;1.20;;
11398;SDS011;5755;48.116;11.608;2022-09-21T09:52:00;2.50;;;1.45;;
11398;SDS011;5755;48.116;11.608;2022-09-21T09:54:28;1.30;;;1.20;;
11398;SDS011;5755;48.116;11.608;2022-09-21T09:56:59;2.33;;;1.20;;
11398;SDS011;5755;48.116;11.608;2022-09-21T09:59:29;3.40;;;1.40;;
11398;SDS011;5755;48.116;11.608;2022-09-21T10:02:02;1.20;;;1.10;;
11398;SDS011;5755;48.116;11.608;2022-09-21T10:04:30;1.58;;;1.13;;
11398;SDS011;5755;48.116;11.608;2022-09-21T10:07:01;1.33;;;1.20;;
11398;SDS011;5755;48.116;11.608;2022-09-21T10:09:28;2.17;;;1.20;;
11398;SDS011;5755;48.116;11.608;2022-09-21T10:11:57;2.08;;;1.45;;
11398;SDS011;5755;48.116;11.608;2022-09-21T10:14:26;2.28;;;1.15;;
11398;SDS011;5755;48.116;11.608;2022-09-21T10:16:56;1.52;;;1.17;;
11398;SDS011;5755;48.116;11.608;2022-09-21T10:19:29;1.20;;;1.10;;
11398;SDS011;5755;48.116;11.608;2022-09-21T10:21:57;1.25;;;1.10;;
11398;SDS011;5755;48.116;11.608;2022-09-21T10:24:27;1.40;;;1.30;;
11398;SDS011;5755;48.116;11.608;2022-09-21T10:27:01;2.42;;;1.45;;
11398;SDS011;5755;48.116;11.608;2022-09-21T10:29:32;2.13;;;1.25;;
11398;SDS011;5755;48.116;11.608;2022-09-21T10:32:07;1.70;;;1.20;;
11398;SDS011;5755;48.116;11.608;2022-09-21T10:34:58;1.60;;;1.50;;
11398;SDS011;5755;48.116;11.608;2022-09-21T10:37:27;2.17;;;1.50;;
11398;SDS011;5755;48.116;11.608;2022-09-21T10:39:59;1.48;;;1.38;;
11398;SDS011;5755;48.116;11.608;2022-09-21T10:42:26;1.65;;;1.00;;
11398;SDS011;5755;48.116;11.608;2022-09-21T10:45:03;2.22;;;1.10;;
11398;SDS011;5755;48.116;11.608;2022-09-21T10:47:45;1.40;;;1.30;;
11398;SDS011;5755;48.116;11.608;2022-09-21T10:50:21;1.58;;;1.40;;
11398;SDS011;5755;48.116;11.608;2022-09-21T10:52:57;1.20;;;1.10;;
11398;SDS011;5755;48.116;11.608;2022-09-21T10:55:28;2.03;;;1.33;;
11398;SDS011;5755;48.116;11.608;2022-09-21T10:57:56;2.00;;;1.17;;
11398;SDS011;5755;48.116;11.608;2022-09-21T11:00:27;1.88;;;1.10;;
11398;SDS011;5755;48.116;11.608;2022-09-21T11:03:03;2.00;;;1.13;;
11398;SDS011;5755;48.116;11.608;2022-09-21T11:05:46;1.67;;;1.20;;
11398;SDS011;5755;48.116;11.608;2022-09-21T11:08:21;1.55;;;0.93;;
11398;SDS011;5755;48.116;11.608;2022-09-21T11:10:59;2.00;;;1.20;;
11398;SDS011;5755;48.116;11.608;2022-09-21T11:13:30;1.13;;;1.02;;
11398;SDS011;5755;48.116;11.608;2022-09-21T11:16:02;1.90;;;1.10;;
11398;SDS011;5755;48.116;11.608;2022-09-21T11:18:39;1.65;;;1.08;;
11398;SDS011;5755;48.116;11.608;2022-09-21T11:21:13;1.33;;;1.17;;
11398;SDS011;5755;48.116;11.608;2022-09-21T11:23:46;2.95;;;1.00;;
11398;SDS011;5755;48.116;11.608;2022-09-21T11:26:23;1.38;;;1.02;;
11398;SDS011;5755;48.116;11.608;2022-09-21T11:28:56;1.33;;;1.08;;
11398;SDS011;5755;48.116;11.608;2022-09-21T11:31:34;1.95;;;1.10;;
11398;SDS011;5755;48.116;11.608;2022-09-21T11:34:13;3.80;;;1.23;;
11398;SDS011;5755;48.116;11.608;2022-09-21T11:36:54;1.75;;;1.20;;
11398;SDS011;5755;48.116;11.608;2022-09-21T11:39:28;1.40;;;1.17;;
11398;SDS011;5755;48.116;11.608;2022-09-21T11:42:08;1.85;;;1.73;;
11398;SDS011;5755;48.116;11.608;2022-09-21T11:44:51;1.10;;;1.00;;
11398;SDS011;5755;48.116;11.608;2022-09-21T11:47:36;1.30;;;0.90;;
11398;SDS011;5755;48.116;11.608;2022-09-21T11:53:18;1.45;;;1.00;;
11398;SDS011;5755;48.116;11.608;2022-09-21T11:55:59;1.63;;;0.77;;
11398;SDS011;5755;48.116;11.608;2022-09-21T11:58:42;2.05;;;1.10;;
11398;SDS011;5755;48.116;11.608;2022-09-21T12:01:18;3.30;;;1.10;;
11398;SDS011;5755;48.116;11.608;2022-09-21T12:04:04;1.83;;;1.13;;
11398;SDS011;5755;48.116;11.608;2022-09-21T12:07:00;1.83;;;1.20;;
11398;SDS011;5755;48.116;11.608;2022-09-21T12:09:48;2.55;;;1.00;;
11398;SDS011;5755;48.116;11.608;2022-09-21T12:12:28;1.45;;;0.80;;
11398;SDS011;5755;48.116;11.608;2022-09-21T12:15:04;2.65;;;1.05;;
11398;SDS011;5755;48.116;11.608;2022-09-21T12:17:40;2.10;;;1.00;;
11398;SDS011;5755;48.116;11.608;2022-09-21T12:20:13;3.35;;;1.40;;
11398;SDS011;5755;48.116;11.608;2022-09-21T12:22:44;1.42;;;1.00;;
11398;SDS011;5755;48.116;11.608;2022-09-21T12:25:14;3.78;;;1.15;;
11398;SDS011;5755;48.116;11.608;2022-09-21T12:27:46;2.75;;;0.80;;
11398;SDS011;5755;48.116;11.608;2022-09-21T12:30:18;1.00;;;1.00;;
11398;SDS011;5755;48.116;11.608;2022-09-21T12:32:49;3.25;;;1.10;;
11398;SDS011;5755;48.116;11.608;2022-09-21T12:35:23;2.63;;;1.02;;
11398;SDS011;5755;48.116;11.608;2022-09-21T12:37:56;3.47;;;0.95;;
11398;SDS011;5755;48.116;11.608;2022-09-21T12:40:27;1.08;;;0.95;;
11398;SDS011;5755;48.116;11.608;2022-09-21T12:43:04;2.55;;;0.98;;
11398;SDS011;5755;48.116;11.608;2022-09-21T12:45:52;0.80;;;0.80;;
11398;SDS011;5755;48.116;11.608;2022-09-21T12:48:25;1.10;;;0.70;;
11398;SDS011;5755;48.116;11.608;2022-09-21T12:50:56;1.60;;;0.90;;
11398;SDS011;5755;48.116;11.608;2022-09-21T12:53:27;5.25;;;1.00;;
11398;SDS011;5755;48.116;11.608;2022-09-21T12:55:59;1.77;;;0.93;;
11398;SDS011;5755;48.116;11.608;2022-09-21T12:58:39;1.27;;;0.75;;
11398;SDS011;5755;48.116;11.608;2022-09-21T13:01:20;1.95;;;0.80;;
11398;SDS011;5755;48.116;11.608;2022-09-21T13:03:57;1.63;;;0.98;;
11398;SDS011;5755;48.116;11.608;2022-09-21T13:06:38;1.27;;;1.00;;
11398;SDS011;5755;48.116;11.608;2022-09-21T13:09:18;0.80;;;0.80;;
11398;SDS011;5755;48.116;11.608;2022-09-21T13:11:48;0.82;;;0.77;;
11398;SDS011;5755;48.116;11.608;2022-09-21T13:14:18;2.00;;;1.30;;
11398;SDS011;5755;48.116;11.608;2022-09-21T13:16:51;1.92;;;1.00;;
11398;SDS011;5755;48.116;11.608;2022-09-21T13:19:22;3.25;;;1.00;;
11398;SDS011;5755;48.116;11.608;2022-09-21T13:24:37;2.15;;;1.00;;
11398;SDS011;5755;48.116;11.608;2022-09-21T13:27:06;1.17;;;0.90;;
11398;SDS011;5755;48.116;11.608;2022-09-21T13:29:34;0.98;;;0.80;;
11398;SDS011;5755;48.116;11.608;2022-09-21T13:32:18;1.73;;;0.95;;
11398;SDS011;5755;48.116;11.608;2022-09-21T13:34:47;1.30;;;0.90;;
11398;SDS011;5755;48.116;11.608;2022-09-21T13:43:41;1.40;;;1.02;;
11398;SDS011;5755;48.116;11.608;2022-09-21T13:49:29;1.15;;;0.93;;
11398;SDS011;5755;48.116;11.608;2022-09-21T13:52:18;1.88;;;1.17;;
11398;SDS011;5755;48.116;11.608;2022-09-21T13:55:05;5.07;;;1.10;;
11398;SDS011;5755;48.116;11.608;2022-09-21T13:57:43;1.83;;;1.10;;
11398;SDS011;5755;48.116;11.608;2022-09-21T14:00:23;1.20;;;1.00;;
11398;SDS011;5755;48.116;11.608;2022-09-21T14:03:16;1.52;;;1.00;;
11398;SDS011;5755;48.116;11.608;2022-09-21T14:05:48;1.52;;;0.98;;
11398;SDS011;5755;48.116;11.608;2022-09-21T14:08:19;1.80;;;0.90;;
11398;SDS011;5755;48.116;11.608;2022-09-21T14:10:50;1.20;;;1.10;;
11398;SDS011;5755;48.116;11.608;2022-09-21T14:13:27;1.17;;;1.05;;
11398;SDS011;5755;48.116;11.608;2022-09-21T14:28:13;1.63;;;1.00;;
11398;SDS011;5755;48.116;11.608;2022-09-21T14:30:46;1.33;;;1.00;;
11398;SDS011;5755;48.116;11.608;2022-09-21T14:33:21;2.03;;;1.20;;
11398;SDS011;5755;48.116;11.608;2022-09-21T14:35:53;1.30;;;0.80;;
11398;SDS011;5755;48.116;11.608;2022-09-21T14:38:23;1.33;;;1.17;;
11398;SDS011;5755;48.116;11.608;2022-09-21T14:40:55;1.10;;;1.00;;
11398;SDS011;5755;48.116;11.608;2022-09-21T14:43:27;1.27;;;1.10;;
11398;SDS011;5755;48.116;11.608;2022-09-21T14:48:55;2.08;;;1.15;;
11398;SDS011;5755;48.116;11.608;2022-09-21T14:51:35;1.42;;;1.33;;
11398;SDS011;5755;48.116;11.608;2022-09-21T14:54:16;2.53;;;1.00;;
11398;SDS011;5755;48.116;11.608;2022-09-21T14:57:13;2.75;;;1.10;;
11398;SDS011;5755;48.116;11.608;2022-09-21T15:00:10;1.83;;;1.40;;
11398;SDS011;5755;48.116;11.608;2022-09-21T15:02:45;2.45;;;1.30;;
11398;SDS011;5755;48.116;11.608;2022-09-21T15:05:18;1.55;;;1.40;;
11398;SDS011;5755;48.116;11.608;2022-09-21T15:07:54;2.60;;;1.05;;
11398;SDS011;5755;48.116;11.608;2022-09-21T15:10:55;1.45;;;1.20;;
11398;SDS011;5755;48.116;11.608;2022-09-21T15:13:41;1.52;;;1.00;;
11398;SDS011;5755;48.116;11.608;2022-09-21T15:16:16;1.52;;;1.02;;
11398;SDS011;5755;48.116;11.608;2022-09-21T15:19:01;1.27;;;1.10;;
11398;SDS011;5755;48.116;11.608;2022-09-21T15:21:39;1.95;;;1.50;;
11398;SDS011;5755;48.116;11.608;2022-09-21T15:24:21;1.20;;;1.10;;
11398;SDS011;5755;48.116;11.608;2022-09-21T15:27:01;2.63;;;1.42;;
11398;SDS011;5755;48.116;11.608;2022-09-21T15:29:33;2.15;;;1.15;;
11398;SDS011;5755;48.116;11.608;2022-09-21T15:32:01;1.50;;;1.20;;
11398;SDS011;5755;48.116;11.608;2022-09-21T15:34:31;2.05;;;1.20;;
11398;SDS011;5755;48.116;11.608;2022-09-21T15:37:05;1.85;;;1.15;;
11398;SDS011;5755;48.116;11.608;2022-09-21T15:39:37;4.32;;;1.25;;
11398;SDS011;5755;48.116;11.608;2022-09-21T15:42:21;4.32;;;0.98;;
11398;SDS011;5755;48.116;11.608;2022-09-21T15:44:48;1.52;;;1.42;;
11398;SDS011;5755;48.116;11.608;2022-09-21T15:47:34;1.20;;;1.10;;
11398;SDS011;5755;48.116;11.608;2022-09-21T15:50:02;3.28;;;1.45;;
11398;SDS011;5755;48.116;11.608;2022-09-21T15:52:30;1.52;;;1.20;;
11398;SDS011;5755;48.116;11.608;2022-09-21T15:55:00;1.23;;;1.13;;
11398;SDS011;5755;48.116;11.608;2022-09-21T15:57:40;2.35;;;1.02;;
11398;SDS011;5755;48.116;11.608;2022-09-21T16:00:29;1.63;;;1.25;;
11398;SDS011;5755;48.116;11.608;2022-09-21T16:03:03;1.60;;;1.50;;